sensor_id;sensor_type;location;lat;lon;timestamp;P1;durP1;ratioP1;P2;durP2;ratioP2
84495;SDS011;74855;51.206;17.408;2024-01-27T00:02:50;8.82;;;2.70;;
84495;SDS011;74855;51.206;17.408;2024-01-27T00:07:47;8.57;;;2.38;;
84495;SDS011;74855;51.206;17.408;2024-01-27T00:12:43;7.82;;;2.45;;
84495;SDS011;74855;51.206;17.408;2024-01-27T00:17:39;9.23;;;2.13;;
84495;SDS011;74855;51.206;17.408;2024-01-27T00:22:34;6.63;;;1.92;;
84495;SDS011;74855;51.206;17.408;2024-01-27T00:27:31;8.50;;;2.15;;
84495;SDS011;74855;51.206;17.408;2024-01-27T00:32:27;11.15;;;2.50;;
84495;SDS011;74855;51.206;17.408;2024-01-27T00:37:22;8.30;;;2.25;;
84495;SDS011;74855;51.206;17.408;2024-01-27T00:42:18;9.90;;;2.80;;
84495;SDS011;74855;51.206;17.408;2024-01-27T00:47:15;6.93;;;2.33;;
84495;SDS011;74855;51.206;17.408;2024-01-27T00:52:10;7.28;;;1.85;;
84495;SDS011;74855;51.206;17.408;2024-01-27T00:57:07;6.22;;;2.00;;
84495;SDS011;74855;51.206;17.408;2024-01-27T01:02:03;10.25;;;2.20;;
84495;SDS011;74855;51.206;17.408;2024-01-27T01:07:00;11.68;;;3.03;;
84495;SDS011;74855;51.206;17.408;2024-01-27T01:11:55;13.30;;;3.58;;
84495;SDS011;74855;51.206;17.408;2024-01-27T01:16:51;13.82;;;2.85;;
84495;SDS011;74855;51.206;17.408;2024-01-27T01:21:46;9.82;;;2.70;;
84495;SDS011;74855;51.206;17.408;2024-01-27T01:26:44;10.55;;;2.10;;
84495;SDS011;74855;51.206;17.408;2024-01-27T01:31:41;12.13;;;3.63;;
84495;SDS011;74855;51.206;17.408;2024-01-27T01:36:36;7.72;;;2.67;;
84495;SDS011;74855;51.206;17.408;2024-01-27T01:41:33;10.45;;;2.53;;
84495;SDS011;74855;51.206;17.408;2024-01-27T01:46:30;5.85;;;1.42;;
84495;SDS011;74855;51.206;17.408;2024-01-27T01:51:26;9.68;;;2.20;;
84495;SDS011;74855;51.206;17.408;2024-01-27T01:56:22;4.90;;;1.70;;
84495;SDS011;74855;51.206;17.408;2024-01-27T02:01:18;11.63;;;2.63;;
84495;SDS011;74855;51.206;17.408;2024-01-27T02:06:17;8.00;;;2.33;;
84495;SDS011;74855;51.206;17.408;2024-01-27T02:11:13;12.20;;;2.20;;
84495;SDS011;74855;51.206;17.408;2024-01-27T02:16:08;9.90;;;2.22;;
84495;SDS011;74855;51.206;17.408;2024-01-27T02:21:04;7.18;;;1.90;;
84495;SDS011;74855;51.206;17.408;2024-01-27T02:26:01;8.00;;;2.03;;
84495;SDS011;74855;51.206;17.408;2024-01-27T02:30:57;6.57;;;1.92;;
84495;SDS011;74855;51.206;17.408;2024-01-27T02:35:52;6.60;;;1.50;;
84495;SDS011;74855;51.206;17.408;2024-01-27T02:40:48;6.40;;;2.20;;
84495;SDS011;74855;51.206;17.408;2024-01-27T02:45:45;7.53;;;1.88;;
84495;SDS011;74855;51.206;17.408;2024-01-27T02:50:41;7.43;;;1.80;;
84495;SDS011;74855;51.206;17.408;2024-01-27T02:55:37;5.65;;;1.63;;
84495;SDS011;74855;51.206;17.408;2024-01-27T03:00:32;7.75;;;2.17;;
84495;SDS011;74855;51.206;17.408;2024-01-27T03:05:29;5.13;;;1.58;;
84495;SDS011;74855;51.206;17.408;2024-01-27T03:10:25;6.50;;;1.75;;
84495;SDS011;74855;51.206;17.408;2024-01-27T03:15:20;9.18;;;2.35;;
84495;SDS011;74855;51.206;17.408;2024-01-27T03:20:16;7.57;;;2.17;;
84495;SDS011;74855;51.206;17.408;2024-01-27T03:25:13;6.85;;;1.90;;
84495;SDS011;74855;51.206;17.408;2024-01-27T03:30:09;10.02;;;2.65;;
84495;SDS011;74855;51.206;17.408;2024-01-27T03:35:05;8.05;;;1.92;;
84495;SDS011;74855;51.206;17.408;2024-01-27T03:40:01;5.43;;;1.75;;
84495;SDS011;74855;51.206;17.408;2024-01-27T03:44:58;7.30;;;1.92;;
84495;SDS011;74855;51.206;17.408;2024-01-27T03:49:54;6.18;;;2.25;;
84495;SDS011;74855;51.206;17.408;2024-01-27T03:54:49;7.22;;;2.20;;
84495;SDS011;74855;51.206;17.408;2024-01-27T03:59:45;9.48;;;2.03;;
84495;SDS011;74855;51.206;17.408;2024-01-27T04:04:42;9.45;;;2.22;;
84495;SDS011;74855;51.206;17.408;2024-01-27T04:09:37;8.77;;;2.55;;
84495;SDS011;74855;51.206;17.408;2024-01-27T04:14:33;11.48;;;2.45;;
84495;SDS011;74855;51.206;17.408;2024-01-27T04:19:28;4.40;;;1.10;;
84495;SDS011;74855;51.206;17.408;2024-01-27T04:24:25;9.15;;;1.98;;
84495;SDS011;74855;51.206;17.408;2024-01-27T04:29:21;8.95;;;2.90;;
84495;SDS011;74855;51.206;17.408;2024-01-27T04:34:16;11.13;;;2.05;;
84495;SDS011;74855;51.206;17.408;2024-01-27T04:39:12;8.77;;;2.22;;
84495;SDS011;74855;51.206;17.408;2024-01-27T04:44:09;7.70;;;2.55;;
84495;SDS011;74855;51.206;17.408;2024-01-27T04:49:04;8.07;;;2.03;;
84495;SDS011;74855;51.206;17.408;2024-01-27T04:54:00;10.85;;;2.17;;
84495;SDS011;74855;51.206;17.408;2024-01-27T04:58:55;8.63;;;3.10;;
84495;SDS011;74855;51.206;17.408;2024-01-27T05:03:52;9.18;;;2.05;;
84495;SDS011;74855;51.206;17.408;2024-01-27T05:08:48;5.35;;;1.48;;
84495;SDS011;74855;51.206;17.408;2024-01-27T05:13:43;7.32;;;1.95;;
84495;SDS011;74855;51.206;17.408;2024-01-27T05:18:40;11.25;;;2.47;;
84495;SDS011;74855;51.206;17.408;2024-01-27T05:23:37;8.65;;;1.80;;
84495;SDS011;74855;51.206;17.408;2024-01-27T05:28:39;9.95;;;2.92;;
84495;SDS011;74855;51.206;17.408;2024-01-27T05:33:35;8.07;;;1.77;;
84495;SDS011;74855;51.206;17.408;2024-01-27T05:38:30;10.25;;;2.22;;
84495;SDS011;74855;51.206;17.408;2024-01-27T05:43:27;7.82;;;2.08;;
84495;SDS011;74855;51.206;17.408;2024-01-27T05:48:23;11.00;;;2.22;;
84495;SDS011;74855;51.206;17.408;2024-01-27T05:53:19;11.30;;;2.95;;
84495;SDS011;74855;51.206;17.408;2024-01-27T05:58:14;9.75;;;2.83;;
84495;SDS011;74855;51.206;17.408;2024-01-27T06:03:11;7.18;;;1.67;;
84495;SDS011;74855;51.206;17.408;2024-01-27T06:08:07;7.63;;;2.13;;
84495;SDS011;74855;51.206;17.408;2024-01-27T06:13:04;7.50;;;2.45;;
84495;SDS011;74855;51.206;17.408;2024-01-27T06:18:00;6.32;;;1.63;;
84495;SDS011;74855;51.206;17.408;2024-01-27T06:27:54;8.07;;;2.67;;
84495;SDS011;74855;51.206;17.408;2024-01-27T06:37:45;5.27;;;2.30;;
84495;SDS011;74855;51.206;17.408;2024-01-27T06:47:38;7.90;;;2.97;;
84495;SDS011;74855;51.206;17.408;2024-01-27T06:52:34;7.10;;;2.33;;
84495;SDS011;74855;51.206;17.408;2024-01-27T07:02:26;8.27;;;2.27;;
84495;SDS011;74855;51.206;17.408;2024-01-27T07:07:24;7.53;;;2.15;;
84495;SDS011;74855;51.206;17.408;2024-01-27T07:12:21;12.43;;;3.80;;
84495;SDS011;74855;51.206;17.408;2024-01-27T07:17:17;7.32;;;2.35;;
84495;SDS011;74855;51.206;17.408;2024-01-27T07:22:13;10.55;;;2.75;;
84495;SDS011;74855;51.206;17.408;2024-01-27T07:27:11;5.88;;;1.77;;
84495;SDS011;74855;51.206;17.408;2024-01-27T07:32:07;7.05;;;2.35;;
84495;SDS011;74855;51.206;17.408;2024-01-27T07:37:03;5.22;;;1.73;;
84495;SDS011;74855;51.206;17.408;2024-01-27T07:42:00;6.20;;;2.20;;
84495;SDS011;74855;51.206;17.408;2024-01-27T07:46:55;7.70;;;2.30;;
84495;SDS011;74855;51.206;17.408;2024-01-27T07:51:51;9.30;;;2.55;;
84495;SDS011;74855;51.206;17.408;2024-01-27T07:56:47;13.38;;;2.17;;
84495;SDS011;74855;51.206;17.408;2024-01-27T08:01:43;10.60;;;2.38;;
84495;SDS011;74855;51.206;17.408;2024-01-27T08:06:45;14.20;;;2.72;;
84495;SDS011;74855;51.206;17.408;2024-01-27T08:11:42;9.30;;;2.75;;
84495;SDS011;74855;51.206;17.408;2024-01-27T08:16:41;11.68;;;3.65;;
84495;SDS011;74855;51.206;17.408;2024-01-27T08:21:38;9.07;;;2.42;;
84495;SDS011;74855;51.206;17.408;2024-01-27T08:26:33;7.32;;;2.17;;
84495;SDS011;74855;51.206;17.408;2024-01-27T08:31:29;7.65;;;2.95;;
84495;SDS011;74855;51.206;17.408;2024-01-27T08:36:24;6.90;;;2.03;;
84495;SDS011;74855;51.206;17.408;2024-01-27T08:46:17;9.02;;;2.40;;
84495;SDS011;74855;51.206;17.408;2024-01-27T08:51:12;8.13;;;1.88;;
84495;SDS011;74855;51.206;17.408;2024-01-27T08:56:10;7.75;;;2.45;;
84495;SDS011;74855;51.206;17.408;2024-01-27T09:01:07;8.40;;;2.05;;
84495;SDS011;74855;51.206;17.408;2024-01-27T09:06:03;7.57;;;2.10;;
84495;SDS011;74855;51.206;17.408;2024-01-27T09:10:58;10.30;;;2.13;;
84495;SDS011;74855;51.206;17.408;2024-01-27T09:15:54;6.55;;;2.63;;
84495;SDS011;74855;51.206;17.408;2024-01-27T09:20:51;9.55;;;2.25;;
84495;SDS011;74855;51.206;17.408;2024-01-27T09:25:48;12.45;;;3.65;;
84495;SDS011;74855;51.206;17.408;2024-01-27T09:30:44;6.38;;;2.15;;
84495;SDS011;74855;51.206;17.408;2024-01-27T09:35:39;11.55;;;3.85;;
84495;SDS011;74855;51.206;17.408;2024-01-27T09:40:36;7.93;;;3.45;;
84495;SDS011;74855;51.206;17.408;2024-01-27T09:45:32;10.50;;;2.20;;
84495;SDS011;74855;51.206;17.408;2024-01-27T09:50:28;7.93;;;2.25;;
84495;SDS011;74855;51.206;17.408;2024-01-27T09:55:29;9.25;;;2.95;;
84495;SDS011;74855;51.206;17.408;2024-01-27T10:00:26;10.50;;;1.95;;
84495;SDS011;74855;51.206;17.408;2024-01-27T10:05:22;9.73;;;2.88;;
84495;SDS011;74855;51.206;17.408;2024-01-27T10:10:21;8.90;;;3.00;;
84495;SDS011;74855;51.206;17.408;2024-01-27T10:15:18;8.10;;;2.28;;
84495;SDS011;74855;51.206;17.408;2024-01-27T10:20:15;10.88;;;2.78;;
84495;SDS011;74855;51.206;17.408;2024-01-27T10:25:11;7.60;;;2.42;;
84495;SDS011;74855;51.206;17.408;2024-01-27T10:30:13;9.68;;;2.58;;
84495;SDS011;74855;51.206;17.408;2024-01-27T11:00:51;14.90;;;3.10;;
84495;SDS011;74855;51.206;17.408;2024-01-27T11:05:48;16.33;;;5.38;;
84495;SDS011;74855;51.206;17.408;2024-01-27T11:10:46;12.25;;;4.15;;
84495;SDS011;74855;51.206;17.408;2024-01-27T11:15:52;13.63;;;3.90;;
84495;SDS011;74855;51.206;17.408;2024-01-27T11:20:48;15.18;;;4.65;;
84495;SDS011;74855;51.206;17.408;2024-01-27T11:25:47;11.93;;;2.80;;
84495;SDS011;74855;51.206;17.408;2024-01-27T11:30:44;9.55;;;3.17;;
84495;SDS011;74855;51.206;17.408;2024-01-27T11:35:43;9.65;;;3.35;;
84495;SDS011;74855;51.206;17.408;2024-01-27T11:40:45;9.20;;;3.22;;
84495;SDS011;74855;51.206;17.408;2024-01-27T11:45:41;14.75;;;5.15;;
84495;SDS011;74855;51.206;17.408;2024-01-27T11:50:36;8.57;;;2.80;;
84495;SDS011;74855;51.206;17.408;2024-01-27T11:55:33;13.68;;;4.57;;
84495;SDS011;74855;51.206;17.408;2024-01-27T12:00:29;13.77;;;5.45;;
84495;SDS011;74855;51.206;17.408;2024-01-27T12:05:25;12.25;;;4.63;;
84495;SDS011;74855;51.206;17.408;2024-01-27T12:10:20;17.58;;;6.40;;
84495;SDS011;74855;51.206;17.408;2024-01-27T12:15:17;15.88;;;4.88;;
84495;SDS011;74855;51.206;17.408;2024-01-27T12:20:14;21.92;;;6.45;;
84495;SDS011;74855;51.206;17.408;2024-01-27T12:25:11;10.75;;;3.75;;
84495;SDS011;74855;51.206;17.408;2024-01-27T12:30:07;15.40;;;4.32;;
84495;SDS011;74855;51.206;17.408;2024-01-27T12:35:06;14.05;;;4.35;;
84495;SDS011;74855;51.206;17.408;2024-01-27T12:40:02;12.88;;;5.07;;
84495;SDS011;74855;51.206;17.408;2024-01-27T12:44:58;14.90;;;5.65;;
84495;SDS011;74855;51.206;17.408;2024-01-27T12:49:54;11.90;;;4.75;;
84495;SDS011;74855;51.206;17.408;2024-01-27T12:54:51;13.13;;;4.18;;
84495;SDS011;74855;51.206;17.408;2024-01-27T12:59:47;25.05;;;9.98;;
84495;SDS011;74855;51.206;17.408;2024-01-27T13:04:42;10.68;;;3.75;;
84495;SDS011;74855;51.206;17.408;2024-01-27T13:09:38;10.35;;;4.43;;
84495;SDS011;74855;51.206;17.408;2024-01-27T13:14:35;11.82;;;3.90;;
84495;SDS011;74855;51.206;17.408;2024-01-27T13:19:30;11.13;;;3.45;;
84495;SDS011;74855;51.206;17.408;2024-01-27T13:24:26;8.50;;;2.90;;
84495;SDS011;74855;51.206;17.408;2024-01-27T13:29:22;11.65;;;3.30;;
84495;SDS011;74855;51.206;17.408;2024-01-27T13:34:19;13.30;;;3.30;;
84495;SDS011;74855;51.206;17.408;2024-01-27T13:39:14;13.00;;;3.38;;
84495;SDS011;74855;51.206;17.408;2024-01-27T13:44:10;16.92;;;6.50;;
84495;SDS011;74855;51.206;17.408;2024-01-27T13:49:05;17.33;;;5.65;;
84495;SDS011;74855;51.206;17.408;2024-01-27T13:54:02;12.80;;;4.38;;
84495;SDS011;74855;51.206;17.408;2024-01-27T13:58:58;12.65;;;5.20;;
84495;SDS011;74855;51.206;17.408;2024-01-27T14:03:54;15.38;;;5.38;;
84495;SDS011;74855;51.206;17.408;2024-01-27T14:08:49;14.68;;;4.70;;
84495;SDS011;74855;51.206;17.408;2024-01-27T14:13:46;14.07;;;4.00;;
84495;SDS011;74855;51.206;17.408;2024-01-27T14:18:42;9.50;;;3.45;;
84495;SDS011;74855;51.206;17.408;2024-01-27T14:23:37;12.38;;;3.88;;
84495;SDS011;74855;51.206;17.408;2024-01-27T14:28:33;8.50;;;3.58;;
84495;SDS011;74855;51.206;17.408;2024-01-27T14:33:30;11.45;;;4.25;;
84495;SDS011;74855;51.206;17.408;2024-01-27T14:38:26;21.23;;;7.47;;
84495;SDS011;74855;51.206;17.408;2024-01-27T14:43:21;10.90;;;4.88;;
84495;SDS011;74855;51.206;17.408;2024-01-27T14:48:17;16.60;;;5.43;;
84495;SDS011;74855;51.206;17.408;2024-01-27T14:53:15;14.95;;;6.30;;
84495;SDS011;74855;51.206;17.408;2024-01-27T14:58:12;15.52;;;6.00;;
84495;SDS011;74855;51.206;17.408;2024-01-27T15:03:07;17.30;;;7.43;;
84495;SDS011;74855;51.206;17.408;2024-01-27T15:08:05;14.68;;;6.95;;
84495;SDS011;74855;51.206;17.408;2024-01-27T15:13:02;14.05;;;4.85;;
84495;SDS011;74855;51.206;17.408;2024-01-27T15:17:58;13.45;;;5.07;;
84495;SDS011;74855;51.206;17.408;2024-01-27T15:22:54;12.45;;;3.08;;
84495;SDS011;74855;51.206;17.408;2024-01-27T15:27:50;15.95;;;4.75;;
84495;SDS011;74855;51.206;17.408;2024-01-27T15:32:47;18.08;;;6.90;;
84495;SDS011;74855;51.206;17.408;2024-01-27T15:37:43;30.40;;;11.05;;
84495;SDS011;74855;51.206;17.408;2024-01-27T15:42:38;25.65;;;8.07;;
84495;SDS011;74855;51.206;17.408;2024-01-27T15:47:34;16.65;;;5.25;;
84495;SDS011;74855;51.206;17.408;2024-01-27T15:52:34;14.93;;;5.78;;
84495;SDS011;74855;51.206;17.408;2024-01-27T15:57:29;25.35;;;9.65;;
84495;SDS011;74855;51.206;17.408;2024-01-27T16:02:25;12.90;;;5.60;;
84495;SDS011;74855;51.206;17.408;2024-01-27T16:07:21;18.50;;;7.72;;
84495;SDS011;74855;51.206;17.408;2024-01-27T16:12:18;17.27;;;7.35;;
84495;SDS011;74855;51.206;17.408;2024-01-27T16:17:14;11.63;;;3.80;;
84495;SDS011;74855;51.206;17.408;2024-01-27T16:22:10;17.30;;;5.95;;
84495;SDS011;74855;51.206;17.408;2024-01-27T16:27:06;13.40;;;5.90;;
84495;SDS011;74855;51.206;17.408;2024-01-27T16:32:03;13.93;;;3.85;;
84495;SDS011;74855;51.206;17.408;2024-01-27T16:36:59;12.77;;;4.70;;
84495;SDS011;74855;51.206;17.408;2024-01-27T16:41:55;11.25;;;4.20;;
84495;SDS011;74855;51.206;17.408;2024-01-27T16:46:50;11.68;;;4.15;;
84495;SDS011;74855;51.206;17.408;2024-01-27T16:51:47;15.55;;;5.70;;
84495;SDS011;74855;51.206;17.408;2024-01-27T16:56:43;16.95;;;5.13;;
84495;SDS011;74855;51.206;17.408;2024-01-27T17:01:39;18.20;;;7.20;;
84495;SDS011;74855;51.206;17.408;2024-01-27T17:06:34;15.32;;;8.00;;
84495;SDS011;74855;51.206;17.408;2024-01-27T17:11:32;56.50;;;20.55;;
84495;SDS011;74855;51.206;17.408;2024-01-27T17:16:28;18.98;;;4.90;;
84495;SDS011;74855;51.206;17.408;2024-01-27T17:21:24;12.27;;;3.90;;
84495;SDS011;74855;51.206;17.408;2024-01-27T17:26:19;14.65;;;5.70;;
84495;SDS011;74855;51.206;17.408;2024-01-27T17:31:16;20.25;;;7.82;;
84495;SDS011;74855;51.206;17.408;2024-01-27T17:36:14;14.07;;;5.57;;
84495;SDS011;74855;51.206;17.408;2024-01-27T17:41:10;17.45;;;6.57;;
84495;SDS011;74855;51.206;17.408;2024-01-27T17:46:05;21.88;;;5.90;;
84495;SDS011;74855;51.206;17.408;2024-01-27T17:51:02;23.35;;;8.73;;
84495;SDS011;74855;51.206;17.408;2024-01-27T17:55:58;31.00;;;14.90;;
84495;SDS011;74855;51.206;17.408;2024-01-27T18:00:54;29.90;;;11.38;;
84495;SDS011;74855;51.206;17.408;2024-01-27T18:05:50;17.63;;;7.60;;
84495;SDS011;74855;51.206;17.408;2024-01-27T18:10:47;23.88;;;8.88;;
84495;SDS011;74855;51.206;17.408;2024-01-27T18:15:42;22.27;;;8.52;;
84495;SDS011;74855;51.206;17.408;2024-01-27T18:20:38;23.27;;;7.53;;
84495;SDS011;74855;51.206;17.408;2024-01-27T18:25:34;29.02;;;9.68;;
84495;SDS011;74855;51.206;17.408;2024-01-27T18:30:31;41.28;;;15.98;;
84495;SDS011;74855;51.206;17.408;2024-01-27T18:35:27;24.00;;;8.48;;
84495;SDS011;74855;51.206;17.408;2024-01-27T18:40:23;31.88;;;12.15;;
84495;SDS011;74855;51.206;17.408;2024-01-27T18:45:19;19.55;;;7.57;;
84495;SDS011;74855;51.206;17.408;2024-01-27T18:50:16;21.17;;;6.65;;
84495;SDS011;74855;51.206;17.408;2024-01-27T18:55:11;26.45;;;7.63;;
84495;SDS011;74855;51.206;17.408;2024-01-27T19:00:13;30.65;;;10.02;;
84495;SDS011;74855;51.206;17.408;2024-01-27T19:05:09;30.63;;;13.98;;
84495;SDS011;74855;51.206;17.408;2024-01-27T19:10:07;23.05;;;6.85;;
84495;SDS011;74855;51.206;17.408;2024-01-27T19:15:03;23.35;;;6.93;;
84495;SDS011;74855;51.206;17.408;2024-01-27T19:20:00;24.77;;;9.27;;
84495;SDS011;74855;51.206;17.408;2024-01-27T19:24:56;17.35;;;5.50;;
84495;SDS011;74855;51.206;17.408;2024-01-27T19:29:55;37.83;;;13.05;;
84495;SDS011;74855;51.206;17.408;2024-01-27T19:34:52;19.27;;;6.95;;
84495;SDS011;74855;51.206;17.408;2024-01-27T19:39:47;16.08;;;6.63;;
84495;SDS011;74855;51.206;17.408;2024-01-27T19:44:43;13.38;;;5.78;;
84495;SDS011;74855;51.206;17.408;2024-01-27T19:49:40;17.17;;;7.38;;
84495;SDS011;74855;51.206;17.408;2024-01-27T19:54:36;18.40;;;6.72;;
84495;SDS011;74855;51.206;17.408;2024-01-27T19:59:31;16.45;;;6.88;;
84495;SDS011;74855;51.206;17.408;2024-01-27T20:04:27;16.23;;;4.82;;
84495;SDS011;74855;51.206;17.408;2024-01-27T20:09:24;17.58;;;4.45;;
84495;SDS011;74855;51.206;17.408;2024-01-27T20:14:20;16.65;;;4.95;;
84495;SDS011;74855;51.206;17.408;2024-01-27T20:19:15;15.35;;;5.72;;
84495;SDS011;74855;51.206;17.408;2024-01-27T20:24:12;14.30;;;3.70;;
84495;SDS011;74855;51.206;17.408;2024-01-27T20:29:09;20.98;;;5.47;;
84495;SDS011;74855;51.206;17.408;2024-01-27T20:34:05;16.65;;;5.72;;
84495;SDS011;74855;51.206;17.408;2024-01-27T20:39:00;21.17;;;6.55;;
84495;SDS011;74855;51.206;17.408;2024-01-27T20:43:56;23.15;;;7.50;;
84495;SDS011;74855;51.206;17.408;2024-01-27T20:48:53;19.60;;;5.93;;
84495;SDS011;74855;51.206;17.408;2024-01-27T20:53:49;15.95;;;5.50;;
84495;SDS011;74855;51.206;17.408;2024-01-27T20:58:45;17.60;;;7.57;;
84495;SDS011;74855;51.206;17.408;2024-01-27T21:03:40;20.83;;;6.60;;
84495;SDS011;74855;51.206;17.408;2024-01-27T21:08:37;22.00;;;5.75;;
84495;SDS011;74855;51.206;17.408;2024-01-27T21:13:33;19.25;;;6.03;;
84495;SDS011;74855;51.206;17.408;2024-01-27T21:18:29;18.35;;;4.22;;
84495;SDS011;74855;51.206;17.408;2024-01-27T21:23:24;16.25;;;4.50;;
84495;SDS011;74855;51.206;17.408;2024-01-27T21:28:21;16.40;;;6.20;;
84495;SDS011;74855;51.206;17.408;2024-01-27T21:33:17;16.23;;;5.95;;
84495;SDS011;74855;51.206;17.408;2024-01-27T21:38:13;17.83;;;4.88;;
84495;SDS011;74855;51.206;17.408;2024-01-27T21:43:09;16.10;;;5.32;;
84495;SDS011;74855;51.206;17.408;2024-01-27T21:48:06;14.70;;;5.22;;
84495;SDS011;74855;51.206;17.408;2024-01-27T21:53:02;19.17;;;8.13;;
84495;SDS011;74855;51.206;17.408;2024-01-27T21:57:58;18.13;;;6.78;;
84495;SDS011;74855;51.206;17.408;2024-01-27T22:02:54;21.05;;;7.65;;
84495;SDS011;74855;51.206;17.408;2024-01-27T22:07:51;12.35;;;4.60;;
84495;SDS011;74855;51.206;17.408;2024-01-27T22:12:46;21.80;;;5.93;;
84495;SDS011;74855;51.206;17.408;2024-01-27T22:17:42;13.88;;;4.80;;
84495;SDS011;74855;51.206;17.408;2024-01-27T22:22:39;12.43;;;5.00;;
84495;SDS011;74855;51.206;17.408;2024-01-27T22:27:37;25.30;;;7.05;;
84495;SDS011;74855;51.206;17.408;2024-01-27T22:32:33;12.32;;;3.42;;
84495;SDS011;74855;51.206;17.408;2024-01-27T22:37:29;13.43;;;3.92;;
84495;SDS011;74855;51.206;17.408;2024-01-27T22:42:24;17.30;;;8.48;;
84495;SDS011;74855;51.206;17.408;2024-01-27T22:47:21;14.80;;;5.47;;
84495;SDS011;74855;51.206;17.408;2024-01-27T22:52:17;18.60;;;6.18;;
84495;SDS011;74855;51.206;17.408;2024-01-27T22:57:13;16.55;;;6.18;;
84495;SDS011;74855;51.206;17.408;2024-01-27T23:02:09;16.75;;;7.07;;
84495;SDS011;74855;51.206;17.408;2024-01-27T23:07:06;26.38;;;9.90;;
84495;SDS011;74855;51.206;17.408;2024-01-27T23:12:03;20.73;;;6.93;;
84495;SDS011;74855;51.206;17.408;2024-01-27T23:16:59;17.75;;;6.47;;
84495;SDS011;74855;51.206;17.408;2024-01-27T23:21:55;16.92;;;8.50;;
84495;SDS011;74855;51.206;17.408;2024-01-27T23:26:52;20.38;;;6.60;;
84495;SDS011;74855;51.206;17.408;2024-01-27T23:31:49;17.67;;;7.05;;
84495;SDS011;74855;51.206;17.408;2024-01-27T23:36:44;28.60;;;15.50;;
84495;SDS011;74855;51.206;17.408;2024-01-27T23:41:40;22.35;;;10.18;;
84495;SDS011;74855;51.206;17.408;2024-01-27T23:46:37;16.58;;;7.68;;
84495;SDS011;74855;51.206;17.408;2024-01-27T23:51:33;29.08;;;10.10;;
84495;SDS011;74855;51.206;17.408;2024-01-27T23:56:30;22.17;;;9.18;;
